Metar Cercanos

 

LEPA - Palma De Mallorc, Spain
Distance from station: ONO 38km
Actualización: 18/08/2018 23:30
Few Clouds
Few Clouds
 Viento del N
Viento: N 9 km/h
Temperatura: 22°C
Rocío: 19°C
Humedad: 83%
Barómetro: 1020 hPa
Clouds: Few Clouds
Visibility: 10 km
Cloud details: Few Clouds 914 m
2018/08/18 21:30 LEPA 182130Z 36005KT 290V060 9999 FEW030 22/19 Q1020 NOSIG
LEMH - Mahon/Menorca Is, Spain
Distance from station: ENE 105km
Actualización: 18/08/2018 23:30
Few Clouds
Few Clouds
 Viento del NNO
Viento: NNO 6 km/h
Temperatura: 22°C
Rocío: 18°C
Humedad: 78%
Barómetro: 1019 hPa
Clouds: Few Clouds
Visibility: 10 km
Cloud details: Few Clouds 914 m
2018/08/18 21:30 LEMH 182130Z 34003KT 9999 FEW030 22/18 Q1019
 
LEIB - Ibiza/Es Codola, Spain
Distance from station: OSO 165km
Actualización: 18/08/2018 23:30
Few Clouds
Few Clouds
 Viento del N
Viento: N 9 km/h
Temperatura: 23°C
Rocío: 20°C
Humedad: 83%
Barómetro: 1019 hPa
Clouds: Few Clouds
Visibility: 10 km
Cloud details: Few Clouds 914 m
2018/08/18 21:30 LEIB 182130Z 35005KT 330V050 9999 FEW030 23/20 Q1019 NOSIG
LEBL - Barcelona Airpor, Spain
Distance from station: NNO 225km
Actualización: 18/08/2018 23:30
Despejado
Despejado
 Viento del NO
Viento: NO 6 km/h
Temperatura: 24°C
Rocío: 17°C
Humedad: 65%
Barómetro: 1020 hPa
Resumen: Despejado
Visibility: greater than 10 km
2018/08/18 21:30 LEBL 182130Z 32003KT CAVOK 24/17 Q1020 NOSIG
 
LEVC - Valencia (civ/Mi, Spain
Distance from station: NO 188km
Actualización: 18/08/2018 23:30
Few Clouds
Few Clouds
 Viento del ONO
Viento: ONO 6 km/h
Temperatura: 25°C
Rocío: 21°C
Humedad: 79%
Barómetro: 1020 hPa
Clouds: Few Clouds
Visibility: 10 km
Cloud details: Few Clouds 914 m
2018/08/18 21:30 LEVC 182130Z 29003KT 9999 FEW030 25/21 Q1020 NOSIG
LEGE - Gerona/Costa Bra, Spain
Distance from station: N 276km
Actualización: 18/08/2018 23:30
Few Clouds
Few Clouds
 Viento del varies
Viento: varies 2 km/h
Temperatura: 20°C
Rocío: 17°C
Humedad: 83%
Barómetro: 1020 hPa
Clouds: Few Clouds
Visibility: 10 km
Cloud details: Few Clouds 914 m
2018/08/18 21:30 LEGE 182130Z VRB01KT 9999 FEW030 20/17 Q1020
 
LEAL - Alicante/El Alte, Spain
Distance from station: OSO 344km
Actualización: 18/08/2018 23:30
Parcialmente nuboso
Parcialmente nuboso
 Viento del ENE
Viento: ENE 11 km/h
Temperatura: 25°C
Rocío: 20°C
Humedad: 74%
Barómetro: 1019 hPa
Clouds: Parcialmente nuboso
Visibility: 10 km
Cloud details: Parcialmente nuboso 610 m
2018/08/18 21:30 LEAL 182130Z 06006KT 9999 SCT020 25/20 Q1019 NOSIG
LEAM - Almeria Airport, Spain
Distance from station: SSO 56km
Actualización: 18/08/2018 23:30
Despejado
Despejado
 Viento del ENE
Viento: ENE 26 km/h
Temperatura: 27°C
Indice Calor: 29°C
Rocío: 20°C
Humedad: 66%
Barómetro: 1016 hPa
Clouds: Despejado
Visibility: 10 km
2018/08/18 21:30 LEAM 182130Z AUTO 06014KT 9999 NCD 27/20 Q1016
 
LEZG - Zaragoza (mil/Ci, Spain
Distance from station: NO 431km
Actualización: 18/08/2018 23:30
Despejado
Despejado
 Viento del O
Viento: O 20 km/h
Temperatura: 22°C
Rocío: 12°C
Humedad: 53%
Barómetro: 1021 hPa
Resumen: Despejado
Visibility: greater than 10 km
2018/08/18 21:30 LEZG 182130Z 28011KT CAVOK 22/12 Q1021
LEMD - Madrid/Barajas, Spain
Distance from station: ONO 234km
Actualización: 18/08/2018 23:30
Despejado
Despejado
 Viento del NE
Viento: NE 15 km/h
Temperatura: 26°C
Rocío: 5°C
Humedad: 26%
Barómetro: 1020 hPa
Resumen: Despejado
Visibility: greater than 10 km
2018/08/18 21:30 LEMD 182130Z 04008KT 360V080 CAVOK 26/05 Q1020 NOSIG
 
LEGR - Granada Airport, Spain
Distance from station: OSO 62km
Actualización: 18/08/2018 23:30
Despejado
Despejado
 Viento del S
Viento: S 7 km/h
Temperatura: 27°C
Indice Calor: 28°C
Rocío: 16°C
Humedad: 51%
Barómetro: 1018 hPa
Clouds: Despejado
Visibility: 10 km
2018/08/18 21:30 LEGR 182130Z AUTO 17004KT 140V200 9999 NCD 27/16 Q1018
LEMG - Malaga (civ/Mil), Spain
Distance from station: OSO 227km
Actualización: 18/08/2018 23:30
Few Clouds
Few Clouds
 Viento del SE
Viento: SE 4 km/h
Temperatura: 25°C
Rocío: 21°C
Humedad: 79%
Barómetro: 1017 hPa
Clouds: Few Clouds
Visibility: 10 km
Cloud details: Few Clouds 610 m
2018/08/18 21:30 LEMG 182130Z 14002KT 9999 FEW020 25/21 Q1017 NOSIG
 
LEZL - Sevilla (civ/Mil, Spain
Distance from station: S 318km
Actualización: 18/08/2018 23:30
Despejado
Despejado
 Viento del OSO
Viento: OSO 9 km/h
Temperatura: 30°C
Indice Calor: 31°C
Rocío: 17°C
Humedad: 46%
Barómetro: 1014 hPa
Resumen: Despejado
Visibility: greater than 10 km
2018/08/18 21:30 LEZL 182130Z 24005KT CAVOK 30/17 Q1014 NOSIG
LEVT - Vitoria, Spain
Distance from station: NO 226km
Actualización: 18/08/2018 23:30
Parcialmente nuboso
Parcialmente nuboso
 Viento del E
Viento: E 6 km/h
Temperatura: 13°C
Rocío: 12°C
Humedad: 94%
Barómetro: 1025 hPa
Clouds: Parcialmente nuboso
Visibility: 10 km
Cloud details: Parcialmente nuboso 1158 m
2018/08/18 21:30 LEVT 182130Z 10003KT 070V140 9999 SCT038 13/12 Q1025
 
LEBB - Bilbao/Sondica, Spain
Distance from station: NNO 235km
Actualización: 18/08/2018 23:30
Few Clouds
Few Clouds
 Viento del varies
Viento: varies 4 km/h
Temperatura: 18°C
Rocío: 16°C
Humedad: 88%
Barómetro: 1024 hPa
Clouds: Few Clouds
Visibility: 10 km
Cloud details: Few Clouds 1372 m
2018/08/18 21:30 LEBB 182130Z VRB02KT 9999 FEW045 18/16 Q1024 NOSIG
LESO - San Sebastian/Fu, Spain
Distance from station: N 231km
Actualización: 18/08/2018 23:30
Despejado
Despejado
 Viento del S
Viento: S 6 km/h
Temperatura: 18°C
Rocío: 16°C
Humedad: 88%
Barómetro: 1024 hPa
Clouds: Despejado
Visibility: 10 km
2018/08/18 21:30 LESO 182130Z AUTO 18003KT 9999 NCD 18/16 Q1024
 
LEVD - Valladolid(Mil/C, Spain
Distance from station: ONO 239km
Actualización: 18/08/2018 21:30
NOT Current
Despejado
Despejado
 Viento del ENE
Viento: ENE 19 km/h
Temperatura: 20°C
Rocío: 4°C
Humedad: 35%
Barómetro: 1021 hPa
Resumen: Despejado
Visibility: greater than 10 km
2018/08/18 19:30 LEVD 181930Z 06010KT CAVOK 20/04 Q1021
LESA - Salamanca (civ/M, Spain
Distance from station: ONO 349km
Actualización: 18/08/2018 23:30
Despejado
Despejado
 Viento del ENE
Viento: ENE 17 km/h
Temperatura: 20°C
Rocío: 4°C
Humedad: 35%
Barómetro: 1022 hPa
Clouds: Despejado
Visibility: 10 km
2018/08/18 21:30 LESA 182130Z AUTO 06009KT 9999 NCD 20/04 Q1022
 
LEXJ - Santander/Paraya, Spain
Distance from station: NNO 247km
Actualización: 18/08/2018 23:30
Despejado
Despejado
 Viento del ESE
Viento: ESE 7 km/h
Temperatura: 18°C
Rocío: 16°C
Humedad: 88%
Barómetro: 1024 hPa
Clouds: Despejado
Visibility: 10 km
2018/08/18 21:30 LEXJ 182130Z AUTO 11004KT 9999 NCD 18/16 Q1024
LEAS - Asturias/Aviles, Spain
Distance from station: NO 214km
Actualización: 18/08/2018 23:30
Few Clouds
Few Clouds
 Viento del E
Viento: E 11 km/h
Temperatura: 18°C
Rocío: 15°C
Humedad: 83%
Barómetro: 1023 hPa
Clouds: Few Clouds
Visibility: 10 km
Cloud details: Few Clouds 2438 m
2018/08/18 21:30 LEAS 182130Z 10006KT 070V150 9999 FEW080 18/15 Q1023 NOSIG
 
LECO - La Coruna/Alvedr, Spain
Distance from station: ONO 222km
Actualización: 18/08/2018 23:30
Despejado
Despejado
 Viento del N
Viento: N 6 km/h
Temperatura: 19°C
Rocío: 13°C
Humedad: 68%
Barómetro: 1021 hPa
Resumen: Despejado
Visibility: greater than 10 km
2018/08/18 21:30 LECO 182130Z 36003KT 320V030 CAVOK 19/13 Q1021 NOSIG
LEVX - Vigo/Peinador, Spain
Distance from station: O 214km
Actualización: 18/08/2018 23:30
Despejado
Despejado
 Viento del N
Viento: N 13 km/h
Temperatura: 25°C
Rocío: 13°C
Humedad: 47%
Barómetro: 1018 hPa
Resumen: Despejado
Visibility: greater than 10 km
2018/08/18 21:30 LEVX 182130Z 35007KT CAVOK 25/13 Q1018 NOSIG